sensor_id;sensor_type;location;lat;lon;timestamp;temperature;humidity
12874;DHT22;6505;51.114;13.128;2022-08-03T00:02:17;25.80;57.70
12874;DHT22;6505;51.114;13.128;2022-08-03T00:04:46;25.80;57.80
12874;DHT22;6505;51.114;13.128;2022-08-03T00:07:15;25.70;57.80
12874;DHT22;6505;51.114;13.128;2022-08-03T00:09:44;25.70;57.70
12874;DHT22;6505;51.114;13.128;2022-08-03T00:12:13;25.70;57.80
12874;DHT22;6505;51.114;13.128;2022-08-03T00:14:42;25.70;57.90
12874;DHT22;6505;51.114;13.128;2022-08-03T00:17:12;25.60;57.80
12874;DHT22;6505;51.114;13.128;2022-08-03T00:19:41;25.60;57.80
12874;DHT22;6505;51.114;13.128;2022-08-03T00:22:10;25.60;57.90
12874;DHT22;6505;51.114;13.128;2022-08-03T00:24:40;25.50;57.90
12874;DHT22;6505;51.114;13.128;2022-08-03T00:27:08;25.50;57.90
12874;DHT22;6505;51.114;13.128;2022-08-03T00:29:42;25.50;57.90
12874;DHT22;6505;51.114;13.128;2022-08-03T00:32:27;25.50;58.00
12874;DHT22;6505;51.114;13.128;2022-08-03T00:34:56;25.50;58.00
12874;DHT22;6505;51.114;13.128;2022-08-03T00:37:27;25.50;58.00
12874;DHT22;6505;51.114;13.128;2022-08-03T00:40:10;25.50;58.10
12874;DHT22;6505;51.114;13.128;2022-08-03T00:42:47;25.40;58.20
12874;DHT22;6505;51.114;13.128;2022-08-03T00:45:21;25.40;58.20
12874;DHT22;6505;51.114;13.128;2022-08-03T00:47:53;25.40;58.20
12874;DHT22;6505;51.114;13.128;2022-08-03T00:50:25;25.30;58.20
12874;DHT22;6505;51.114;13.128;2022-08-03T00:52:57;25.30;58.30
12874;DHT22;6505;51.114;13.128;2022-08-03T00:55:27;25.30;58.30
12874;DHT22;6505;51.114;13.128;2022-08-03T00:57:56;25.30;58.40
12874;DHT22;6505;51.114;13.128;2022-08-03T01:00:27;25.30;58.50
12874;DHT22;6505;51.114;13.128;2022-08-03T01:03:00;25.20;58.40
12874;DHT22;6505;51.114;13.128;2022-08-03T01:05:39;25.20;58.50
12874;DHT22;6505;51.114;13.128;2022-08-03T01:08:22;25.20;58.50
12874;DHT22;6505;51.114;13.128;2022-08-03T01:11:05;25.20;58.50
12874;DHT22;6505;51.114;13.128;2022-08-03T01:13:47;25.20;58.60
12874;DHT22;6505;51.114;13.128;2022-08-03T01:16:32;25.20;58.80
12874;DHT22;6505;51.114;13.128;2022-08-03T01:19:21;25.20;58.60
12874;DHT22;6505;51.114;13.128;2022-08-03T01:22:14;25.20;58.90
12874;DHT22;6505;51.114;13.128;2022-08-03T01:25:03;25.10;58.80
12874;DHT22;6505;51.114;13.128;2022-08-03T01:27:47;25.10;58.70
12874;DHT22;6505;51.114;13.128;2022-08-03T01:30:24;25.00;58.70
12874;DHT22;6505;51.114;13.128;2022-08-03T01:32:59;25.10;58.80
12874;DHT22;6505;51.114;13.128;2022-08-03T01:35:33;25.00;58.70
12874;DHT22;6505;51.114;13.128;2022-08-03T01:38:08;25.00;58.70
12874;DHT22;6505;51.114;13.128;2022-08-03T01:40:39;25.00;58.70
12874;DHT22;6505;51.114;13.128;2022-08-03T01:43:14;25.00;58.70
12874;DHT22;6505;51.114;13.128;2022-08-03T01:46:06;24.90;58.70
12874;DHT22;6505;51.114;13.128;2022-08-03T01:48:36;24.90;58.70
12874;DHT22;6505;51.114;13.128;2022-08-03T01:51:08;24.90;58.70
12874;DHT22;6505;51.114;13.128;2022-08-03T01:53:39;24.90;58.70
12874;DHT22;6505;51.114;13.128;2022-08-03T01:56:09;24.90;58.60
12874;DHT22;6505;51.114;13.128;2022-08-03T01:58:38;24.90;58.70
12874;DHT22;6505;51.114;13.128;2022-08-03T02:01:09;24.80;58.60
12874;DHT22;6505;51.114;13.128;2022-08-03T02:03:40;24.80;58.60
12874;DHT22;6505;51.114;13.128;2022-08-03T02:06:26;24.80;58.60
12874;DHT22;6505;51.114;13.128;2022-08-03T02:09:19;24.80;58.50
12874;DHT22;6505;51.114;13.128;2022-08-03T02:11:50;24.80;58.70
12874;DHT22;6505;51.114;13.128;2022-08-03T02:14:19;24.80;58.90
12874;DHT22;6505;51.114;13.128;2022-08-03T02:16:50;24.70;58.80
12874;DHT22;6505;51.114;13.128;2022-08-03T02:19:19;24.80;58.90
12874;DHT22;6505;51.114;13.128;2022-08-03T02:21:50;24.70;58.90
12874;DHT22;6505;51.114;13.128;2022-08-03T02:24:26;24.70;58.90
12874;DHT22;6505;51.114;13.128;2022-08-03T02:26:55;24.60;58.80
12874;DHT22;6505;51.114;13.128;2022-08-03T02:29:28;24.70;59.00
12874;DHT22;6505;51.114;13.128;2022-08-03T02:32:09;24.60;58.90
12874;DHT22;6505;51.114;13.128;2022-08-03T02:34:44;24.60;58.90
12874;DHT22;6505;51.114;13.128;2022-08-03T02:37:17;24.60;58.90
12874;DHT22;6505;51.114;13.128;2022-08-03T02:39:47;24.60;58.90
12874;DHT22;6505;51.114;13.128;2022-08-03T02:42:20;24.60;58.90
12874;DHT22;6505;51.114;13.128;2022-08-03T02:44:52;24.60;59.00
12874;DHT22;6505;51.114;13.128;2022-08-03T02:47:25;24.60;59.00
12874;DHT22;6505;51.114;13.128;2022-08-03T02:50:16;24.50;58.90
12874;DHT22;6505;51.114;13.128;2022-08-03T02:52:47;24.60;58.90
12874;DHT22;6505;51.114;13.128;2022-08-03T02:55:17;24.50;58.90
12874;DHT22;6505;51.114;13.128;2022-08-03T02:57:47;24.50;58.90
12874;DHT22;6505;51.114;13.128;2022-08-03T03:00:17;24.50;59.00
12874;DHT22;6505;51.114;13.128;2022-08-03T03:02:56;24.50;58.90
12874;DHT22;6505;51.114;13.128;2022-08-03T03:05:26;24.50;59.00
12874;DHT22;6505;51.114;13.128;2022-08-03T03:08:20;24.40;58.90
12874;DHT22;6505;51.114;13.128;2022-08-03T03:10:54;24.40;58.90
12874;DHT22;6505;51.114;13.128;2022-08-03T03:13:24;24.40;58.90
12874;DHT22;6505;51.114;13.128;2022-08-03T03:15:55;24.40;59.00
12874;DHT22;6505;51.114;13.128;2022-08-03T03:18:28;24.40;59.00
12874;DHT22;6505;51.114;13.128;2022-08-03T03:20:59;24.40;59.00
12874;DHT22;6505;51.114;13.128;2022-08-03T03:23:30;24.40;59.00
12874;DHT22;6505;51.114;13.128;2022-08-03T03:26:00;24.30;59.10
12874;DHT22;6505;51.114;13.128;2022-08-03T03:28:30;24.40;59.10
12874;DHT22;6505;51.114;13.128;2022-08-03T03:30:59;24.30;59.00
12874;DHT22;6505;51.114;13.128;2022-08-03T03:33:29;24.30;58.90
12874;DHT22;6505;51.114;13.128;2022-08-03T03:35:57;24.30;58.90
12874;DHT22;6505;51.114;13.128;2022-08-03T03:38:26;24.30;58.90
12874;DHT22;6505;51.114;13.128;2022-08-03T03:40:55;24.30;58.90
12874;DHT22;6505;51.114;13.128;2022-08-03T03:43:23;24.20;58.80
12874;DHT22;6505;51.114;13.128;2022-08-03T03:45:51;24.30;59.10
12874;DHT22;6505;51.114;13.128;2022-08-03T03:48:20;24.20;59.00
12874;DHT22;6505;51.114;13.128;2022-08-03T03:50:49;24.20;58.90
12874;DHT22;6505;51.114;13.128;2022-08-03T03:53:18;24.20;59.00
12874;DHT22;6505;51.114;13.128;2022-08-03T03:55:46;24.20;59.00
12874;DHT22;6505;51.114;13.128;2022-08-03T03:58:29;24.20;59.10
12874;DHT22;6505;51.114;13.128;2022-08-03T04:00:59;24.20;59.20
12874;DHT22;6505;51.114;13.128;2022-08-03T04:03:27;24.30;59.20
12874;DHT22;6505;51.114;13.128;2022-08-03T04:05:57;24.20;59.10
12874;DHT22;6505;51.114;13.128;2022-08-03T04:08:44;24.20;59.40
12874;DHT22;6505;51.114;13.128;2022-08-03T04:11:44;24.20;59.40
12874;DHT22;6505;51.114;13.128;2022-08-03T04:14:17;24.20;59.40
12874;DHT22;6505;51.114;13.128;2022-08-03T04:16:49;24.30;59.50
12874;DHT22;6505;51.114;13.128;2022-08-03T04:19:25;24.30;59.50
12874;DHT22;6505;51.114;13.128;2022-08-03T04:22:02;24.30;59.60
12874;DHT22;6505;51.114;13.128;2022-08-03T04:24:36;24.30;59.50
12874;DHT22;6505;51.114;13.128;2022-08-03T04:27:10;24.40;59.70
12874;DHT22;6505;51.114;13.128;2022-08-03T04:29:47;24.40;59.70
12874;DHT22;6505;51.114;13.128;2022-08-03T04:32:18;24.60;59.70
12874;DHT22;6505;51.114;13.128;2022-08-03T04:34:49;24.60;59.70
12874;DHT22;6505;51.114;13.128;2022-08-03T04:37:25;24.70;59.60
12874;DHT22;6505;51.114;13.128;2022-08-03T04:40:01;24.80;59.60
12874;DHT22;6505;51.114;13.128;2022-08-03T04:42:32;24.90;59.50
12874;DHT22;6505;51.114;13.128;2022-08-03T04:45:02;25.10;59.50
12874;DHT22;6505;51.114;13.128;2022-08-03T04:47:32;25.20;59.40
12874;DHT22;6505;51.114;13.128;2022-08-03T04:50:01;25.40;59.00
12874;DHT22;6505;51.114;13.128;2022-08-03T04:52:38;25.50;59.10
12874;DHT22;6505;51.114;13.128;2022-08-03T04:55:06;25.60;59.00
12874;DHT22;6505;51.114;13.128;2022-08-03T04:57:35;25.80;59.00
12874;DHT22;6505;51.114;13.128;2022-08-03T05:00:04;25.90;58.30
12874;DHT22;6505;51.114;13.128;2022-08-03T05:02:33;25.90;58.50
12874;DHT22;6505;51.114;13.128;2022-08-03T05:05:01;26.00;58.60
12874;DHT22;6505;51.114;13.128;2022-08-03T05:07:29;26.00;57.70
12874;DHT22;6505;51.114;13.128;2022-08-03T05:10:05;26.10;57.40
12874;DHT22;6505;51.114;13.128;2022-08-03T05:12:42;26.10;57.60
12874;DHT22;6505;51.114;13.128;2022-08-03T05:15:11;26.10;58.30
12874;DHT22;6505;51.114;13.128;2022-08-03T05:17:39;26.10;57.50
12874;DHT22;6505;51.114;13.128;2022-08-03T05:20:09;26.10;57.50
12874;DHT22;6505;51.114;13.128;2022-08-03T05:22:37;26.10;57.80
12874;DHT22;6505;51.114;13.128;2022-08-03T05:25:07;26.10;57.70
12874;DHT22;6505;51.114;13.128;2022-08-03T05:27:43;26.10;57.90
12874;DHT22;6505;51.114;13.128;2022-08-03T05:30:11;26.20;58.10
12874;DHT22;6505;51.114;13.128;2022-08-03T05:33:00;26.20;58.20
12874;DHT22;6505;51.114;13.128;2022-08-03T05:35:29;26.20;58.10
12874;DHT22;6505;51.114;13.128;2022-08-03T05:38:17;26.20;58.10
12874;DHT22;6505;51.114;13.128;2022-08-03T05:40:55;26.20;58.10
12874;DHT22;6505;51.114;13.128;2022-08-03T05:43:44;26.30;58.20
12874;DHT22;6505;51.114;13.128;2022-08-03T05:46:12;26.40;58.10
12874;DHT22;6505;51.114;13.128;2022-08-03T05:48:41;26.40;58.00
12874;DHT22;6505;51.114;13.128;2022-08-03T05:51:09;26.40;57.80
12874;DHT22;6505;51.114;13.128;2022-08-03T05:53:38;26.40;58.00
12874;DHT22;6505;51.114;13.128;2022-08-03T05:56:08;26.50;58.30
12874;DHT22;6505;51.114;13.128;2022-08-03T05:58:40;26.50;58.40
12874;DHT22;6505;51.114;13.128;2022-08-03T06:01:08;26.60;58.30
12874;DHT22;6505;51.114;13.128;2022-08-03T06:03:36;26.60;58.30
12874;DHT22;6505;51.114;13.128;2022-08-03T06:06:05;26.70;58.70
12874;DHT22;6505;51.114;13.128;2022-08-03T06:08:33;26.80;58.40
12874;DHT22;6505;51.114;13.128;2022-08-03T06:11:01;26.80;58.50
12874;DHT22;6505;51.114;13.128;2022-08-03T06:13:31;26.90;58.50
12874;DHT22;6505;51.114;13.128;2022-08-03T06:15:59;27.00;58.70
12874;DHT22;6505;51.114;13.128;2022-08-03T06:18:27;27.10;59.20
12874;DHT22;6505;51.114;13.128;2022-08-03T06:20:55;27.20;58.60
12874;DHT22;6505;51.114;13.128;2022-08-03T06:23:40;27.40;58.40
12874;DHT22;6505;51.114;13.128;2022-08-03T06:26:24;27.50;58.90
12874;DHT22;6505;51.114;13.128;2022-08-03T06:28:54;27.70;58.70
12874;DHT22;6505;51.114;13.128;2022-08-03T06:31:23;28.00;58.80
12874;DHT22;6505;51.114;13.128;2022-08-03T06:33:59;28.30;57.80
12874;DHT22;6505;51.114;13.128;2022-08-03T06:36:51;28.70;58.20
12874;DHT22;6505;51.114;13.128;2022-08-03T06:39:27;29.20;57.10
12874;DHT22;6505;51.114;13.128;2022-08-03T06:41:55;29.60;56.20
12874;DHT22;6505;51.114;13.128;2022-08-03T06:44:25;30.20;55.40
12874;DHT22;6505;51.114;13.128;2022-08-03T06:46:53;30.70;54.00
12874;DHT22;6505;51.114;13.128;2022-08-03T06:49:21;31.20;53.30
12874;DHT22;6505;51.114;13.128;2022-08-03T06:51:49;31.70;52.10
12874;DHT22;6505;51.114;13.128;2022-08-03T06:54:32;32.30;50.80
12874;DHT22;6505;51.114;13.128;2022-08-03T06:57:02;32.80;49.50
12874;DHT22;6505;51.114;13.128;2022-08-03T06:59:32;33.30;48.40
12874;DHT22;6505;51.114;13.128;2022-08-03T07:02:20;33.80;47.00
12874;DHT22;6505;51.114;13.128;2022-08-03T07:04:48;34.30;45.60
12874;DHT22;6505;51.114;13.128;2022-08-03T07:07:16;34.60;44.10
12874;DHT22;6505;51.114;13.128;2022-08-03T07:09:46;34.90;43.40
12874;DHT22;6505;51.114;13.128;2022-08-03T07:12:23;35.20;42.60
12874;DHT22;6505;51.114;13.128;2022-08-03T07:14:53;35.20;41.90
12874;DHT22;6505;51.114;13.128;2022-08-03T07:17:28;35.10;41.70
12874;DHT22;6505;51.114;13.128;2022-08-03T07:19:57;35.00;42.20
12874;DHT22;6505;51.114;13.128;2022-08-03T07:22:26;34.80;42.20
12874;DHT22;6505;51.114;13.128;2022-08-03T07:24:54;34.80;42.40
12874;DHT22;6505;51.114;13.128;2022-08-03T07:27:23;34.90;42.30
12874;DHT22;6505;51.114;13.128;2022-08-03T07:29:53;35.20;41.80
12874;DHT22;6505;51.114;13.128;2022-08-03T07:32:22;35.60;41.60
12874;DHT22;6505;51.114;13.128;2022-08-03T07:34:50;36.00;41.10
12874;DHT22;6505;51.114;13.128;2022-08-03T07:37:25;36.40;40.30
12874;DHT22;6505;51.114;13.128;2022-08-03T07:39:53;36.80;39.50
12874;DHT22;6505;51.114;13.128;2022-08-03T07:42:21;37.20;38.90
12874;DHT22;6505;51.114;13.128;2022-08-03T07:44:49;37.60;38.00
12874;DHT22;6505;51.114;13.128;2022-08-03T07:47:19;37.90;36.90
12874;DHT22;6505;51.114;13.128;2022-08-03T07:49:49;38.30;36.50
12874;DHT22;6505;51.114;13.128;2022-08-03T07:52:17;38.60;35.60
12874;DHT22;6505;51.114;13.128;2022-08-03T07:55:04;38.90;34.60
12874;DHT22;6505;51.114;13.128;2022-08-03T07:57:33;39.20;34.40
12874;DHT22;6505;51.114;13.128;2022-08-03T08:00:03;39.50;34.20
12874;DHT22;6505;51.114;13.128;2022-08-03T08:02:42;39.80;33.40
12874;DHT22;6505;51.114;13.128;2022-08-03T08:05:11;40.10;32.70
12874;DHT22;6505;51.114;13.128;2022-08-03T08:07:39;40.40;32.80
12874;DHT22;6505;51.114;13.128;2022-08-03T08:10:08;40.60;32.00
12874;DHT22;6505;51.114;13.128;2022-08-03T08:12:39;40.70;30.90
12874;DHT22;6505;51.114;13.128;2022-08-03T08:15:07;40.90;29.80
12874;DHT22;6505;51.114;13.128;2022-08-03T08:17:47;41.20;29.10
12874;DHT22;6505;51.114;13.128;2022-08-03T08:20:17;41.20;28.90
12874;DHT22;6505;51.114;13.128;2022-08-03T08:22:57;41.40;29.80
12874;DHT22;6505;51.114;13.128;2022-08-03T08:25:29;41.50;28.70
12874;DHT22;6505;51.114;13.128;2022-08-03T08:27:59;41.50;29.10
12874;DHT22;6505;51.114;13.128;2022-08-03T08:30:49;41.50;28.70
12874;DHT22;6505;51.114;13.128;2022-08-03T08:33:18;41.60;28.60
12874;DHT22;6505;51.114;13.128;2022-08-03T08:35:50;41.50;27.50
12874;DHT22;6505;51.114;13.128;2022-08-03T08:38:19;41.40;28.10
12874;DHT22;6505;51.114;13.128;2022-08-03T08:40:48;41.40;28.00
12874;DHT22;6505;51.114;13.128;2022-08-03T08:43:16;41.30;27.30
12874;DHT22;6505;51.114;13.128;2022-08-03T08:45:45;41.20;27.10
12874;DHT22;6505;51.114;13.128;2022-08-03T08:48:19;41.00;27.50
12874;DHT22;6505;51.114;13.128;2022-08-03T08:50:52;40.90;27.80
12874;DHT22;6505;51.114;13.128;2022-08-03T08:53:22;40.90;28.20
12874;DHT22;6505;51.114;13.128;2022-08-03T08:55:54;40.80;28.40
12874;DHT22;6505;51.114;13.128;2022-08-03T08:58:29;40.70;29.00
12874;DHT22;6505;51.114;13.128;2022-08-03T09:01:01;40.50;28.60
12874;DHT22;6505;51.114;13.128;2022-08-03T09:03:33;40.40;27.70
12874;DHT22;6505;51.114;13.128;2022-08-03T09:06:02;40.30;28.10
12874;DHT22;6505;51.114;13.128;2022-08-03T09:08:31;40.20;27.90
12874;DHT22;6505;51.114;13.128;2022-08-03T09:11:00;40.00;29.00
12874;DHT22;6505;51.114;13.128;2022-08-03T09:13:29;39.90;28.20
12874;DHT22;6505;51.114;13.128;2022-08-03T09:16:18;39.70;29.20
12874;DHT22;6505;51.114;13.128;2022-08-03T09:18:51;39.60;29.90
12874;DHT22;6505;51.114;13.128;2022-08-03T09:21:21;39.40;28.50
12874;DHT22;6505;51.114;13.128;2022-08-03T09:24:01;39.30;28.40
12874;DHT22;6505;51.114;13.128;2022-08-03T09:26:38;39.10;28.20
12874;DHT22;6505;51.114;13.128;2022-08-03T09:29:08;38.90;28.30
12874;DHT22;6505;51.114;13.128;2022-08-03T09:31:42;38.80;29.70
12874;DHT22;6505;51.114;13.128;2022-08-03T09:34:14;38.60;29.70
12874;DHT22;6505;51.114;13.128;2022-08-03T09:36:45;38.30;30.00
12874;DHT22;6505;51.114;13.128;2022-08-03T09:39:15;38.20;31.00
12874;DHT22;6505;51.114;13.128;2022-08-03T09:41:47;37.90;30.30
12874;DHT22;6505;51.114;13.128;2022-08-03T09:44:33;37.70;30.50
12874;DHT22;6505;51.114;13.128;2022-08-03T09:47:03;37.50;29.90
12874;DHT22;6505;51.114;13.128;2022-08-03T09:49:33;37.30;29.40
12874;DHT22;6505;51.114;13.128;2022-08-03T09:52:11;37.10;29.50
12874;DHT22;6505;51.114;13.128;2022-08-03T09:55:02;36.90;30.20
12874;DHT22;6505;51.114;13.128;2022-08-03T09:58:04;36.80;29.60
12874;DHT22;6505;51.114;13.128;2022-08-03T10:00:52;36.50;29.50
12874;DHT22;6505;51.114;13.128;2022-08-03T10:03:23;36.40;30.30
12874;DHT22;6505;51.114;13.128;2022-08-03T10:05:55;36.20;30.60
12874;DHT22;6505;51.114;13.128;2022-08-03T10:08:26;36.00;32.30
12874;DHT22;6505;51.114;13.128;2022-08-03T10:10:55;35.90;32.40
12874;DHT22;6505;51.114;13.128;2022-08-03T10:13:24;35.80;32.80
12874;DHT22;6505;51.114;13.128;2022-08-03T10:15:54;35.60;31.20
12874;DHT22;6505;51.114;13.128;2022-08-03T10:18:42;35.50;32.70
12874;DHT22;6505;51.114;13.128;2022-08-03T10:21:16;35.40;32.40
12874;DHT22;6505;51.114;13.128;2022-08-03T10:23:47;35.20;33.80
12874;DHT22;6505;51.114;13.128;2022-08-03T10:26:19;35.10;34.40
12874;DHT22;6505;51.114;13.128;2022-08-03T10:28:53;35.00;34.80
12874;DHT22;6505;51.114;13.128;2022-08-03T10:31:32;34.90;34.90
12874;DHT22;6505;51.114;13.128;2022-08-03T10:34:23;34.80;33.10
12874;DHT22;6505;51.114;13.128;2022-08-03T10:36:58;34.70;34.60
12874;DHT22;6505;51.114;13.128;2022-08-03T10:39:29;34.70;34.10
12874;DHT22;6505;51.114;13.128;2022-08-03T10:41:58;34.60;35.00
12874;DHT22;6505;51.114;13.128;2022-08-03T10:44:36;34.50;33.90
12874;DHT22;6505;51.114;13.128;2022-08-03T10:47:09;34.40;33.90
12874;DHT22;6505;51.114;13.128;2022-08-03T10:49:38;34.30;35.20
12874;DHT22;6505;51.114;13.128;2022-08-03T10:52:10;34.30;33.20
12874;DHT22;6505;51.114;13.128;2022-08-03T10:54:58;34.20;33.80
12874;DHT22;6505;51.114;13.128;2022-08-03T10:57:51;34.10;32.90
12874;DHT22;6505;51.114;13.128;2022-08-03T11:00:26;34.00;32.40
12874;DHT22;6505;51.114;13.128;2022-08-03T11:03:02;34.00;32.30
12874;DHT22;6505;51.114;13.128;2022-08-03T11:05:39;34.00;32.90
12874;DHT22;6505;51.114;13.128;2022-08-03T11:08:18;33.90;33.70
12874;DHT22;6505;51.114;13.128;2022-08-03T11:10:50;33.80;33.10
12874;DHT22;6505;51.114;13.128;2022-08-03T11:13:21;33.70;33.50
12874;DHT22;6505;51.114;13.128;2022-08-03T11:15:54;33.70;33.50
12874;DHT22;6505;51.114;13.128;2022-08-03T11:18:27;33.70;34.00
12874;DHT22;6505;51.114;13.128;2022-08-03T11:20:57;33.60;34.20
12874;DHT22;6505;51.114;13.128;2022-08-03T11:23:44;33.70;33.80
12874;DHT22;6505;51.114;13.128;2022-08-03T11:26:31;33.60;33.90
12874;DHT22;6505;51.114;13.128;2022-08-03T11:29:27;33.50;32.60
12874;DHT22;6505;51.114;13.128;2022-08-03T11:31:56;33.50;31.90
12874;DHT22;6505;51.114;13.128;2022-08-03T11:34:24;33.50;30.60
12874;DHT22;6505;51.114;13.128;2022-08-03T11:37:18;33.40;33.00
12874;DHT22;6505;51.114;13.128;2022-08-03T11:39:52;33.40;30.70
12874;DHT22;6505;51.114;13.128;2022-08-03T11:42:41;33.40;31.60
12874;DHT22;6505;51.114;13.128;2022-08-03T11:45:16;33.30;29.90
12874;DHT22;6505;51.114;13.128;2022-08-03T11:47:46;33.20;33.10
12874;DHT22;6505;51.114;13.128;2022-08-03T11:50:17;33.20;33.90
12874;DHT22;6505;51.114;13.128;2022-08-03T11:52:48;33.20;33.80
12874;DHT22;6505;51.114;13.128;2022-08-03T11:55:18;33.20;34.30
12874;DHT22;6505;51.114;13.128;2022-08-03T11:57:48;33.10;32.80
12874;DHT22;6505;51.114;13.128;2022-08-03T12:00:36;33.10;33.80
12874;DHT22;6505;51.114;13.128;2022-08-03T12:03:06;33.00;34.20
12874;DHT22;6505;51.114;13.128;2022-08-03T12:05:44;33.00;33.70
12874;DHT22;6505;51.114;13.128;2022-08-03T12:08:28;33.00;34.30
12874;DHT22;6505;51.114;13.128;2022-08-03T12:11:01;33.00;34.80
12874;DHT22;6505;51.114;13.128;2022-08-03T12:13:37;32.90;34.90
12874;DHT22;6505;51.114;13.128;2022-08-03T12:16:26;32.90;34.80
12874;DHT22;6505;51.114;13.128;2022-08-03T12:18:56;32.80;34.00
12874;DHT22;6505;51.114;13.128;2022-08-03T12:21:25;32.80;34.90
12874;DHT22;6505;51.114;13.128;2022-08-03T12:23:57;32.80;34.40
12874;DHT22;6505;51.114;13.128;2022-08-03T12:26:29;32.80;34.10
12874;DHT22;6505;51.114;13.128;2022-08-03T12:29:15;32.70;33.40
12874;DHT22;6505;51.114;13.128;2022-08-03T12:31:44;32.60;34.10
12874;DHT22;6505;51.114;13.128;2022-08-03T12:34:13;32.60;34.40
12874;DHT22;6505;51.114;13.128;2022-08-03T12:36:50;32.70;34.40
12874;DHT22;6505;51.114;13.128;2022-08-03T12:39:22;32.60;33.60
12874;DHT22;6505;51.114;13.128;2022-08-03T12:41:54;32.50;32.90
12874;DHT22;6505;51.114;13.128;2022-08-03T12:44:28;32.60;34.40
12874;DHT22;6505;51.114;13.128;2022-08-03T12:46:58;32.50;33.70
12874;DHT22;6505;51.114;13.128;2022-08-03T12:49:26;32.50;33.10
12874;DHT22;6505;51.114;13.128;2022-08-03T12:51:57;32.40;32.30
12874;DHT22;6505;51.114;13.128;2022-08-03T12:54:32;32.50;32.10
12874;DHT22;6505;51.114;13.128;2022-08-03T12:57:04;32.40;32.00
12874;DHT22;6505;51.114;13.128;2022-08-03T12:59:35;32.40;33.20
12874;DHT22;6505;51.114;13.128;2022-08-03T13:02:14;32.40;33.60
12874;DHT22;6505;51.114;13.128;2022-08-03T13:04:44;32.40;33.30
12874;DHT22;6505;51.114;13.128;2022-08-03T13:07:14;32.40;34.00
12874;DHT22;6505;51.114;13.128;2022-08-03T13:09:46;32.40;34.00
12874;DHT22;6505;51.114;13.128;2022-08-03T13:12:18;32.40;34.20
12874;DHT22;6505;51.114;13.128;2022-08-03T13:14:49;32.40;34.10
12874;DHT22;6505;51.114;13.128;2022-08-03T13:17:19;32.40;32.20
12874;DHT22;6505;51.114;13.128;2022-08-03T13:19:48;32.30;32.60
12874;DHT22;6505;51.114;13.128;2022-08-03T13:22:18;32.30;32.80
12874;DHT22;6505;51.114;13.128;2022-08-03T13:24:49;32.30;33.50
12874;DHT22;6505;51.114;13.128;2022-08-03T13:27:19;32.30;33.80
12874;DHT22;6505;51.114;13.128;2022-08-03T13:30:08;32.30;32.50
12874;DHT22;6505;51.114;13.128;2022-08-03T13:32:37;32.20;32.90
12874;DHT22;6505;51.114;13.128;2022-08-03T13:35:06;32.20;31.90
12874;DHT22;6505;51.114;13.128;2022-08-03T13:37:36;32.30;31.40
12874;DHT22;6505;51.114;13.128;2022-08-03T13:40:06;32.20;32.50
12874;DHT22;6505;51.114;13.128;2022-08-03T13:42:38;32.20;33.10
12874;DHT22;6505;51.114;13.128;2022-08-03T13:45:06;32.20;33.10
12874;DHT22;6505;51.114;13.128;2022-08-03T13:47:36;32.20;31.50
12874;DHT22;6505;51.114;13.128;2022-08-03T13:50:05;32.20;32.80
12874;DHT22;6505;51.114;13.128;2022-08-03T13:52:34;32.20;32.80
12874;DHT22;6505;51.114;13.128;2022-08-03T13:55:05;32.20;33.20
12874;DHT22;6505;51.114;13.128;2022-08-03T13:57:34;32.20;33.30
12874;DHT22;6505;51.114;13.128;2022-08-03T14:00:23;32.20;33.10
12874;DHT22;6505;51.114;13.128;2022-08-03T14:02:56;32.10;32.50
12874;DHT22;6505;51.114;13.128;2022-08-03T14:05:38;32.10;32.70
12874;DHT22;6505;51.114;13.128;2022-08-03T14:08:07;32.10;32.90
12874;DHT22;6505;51.114;13.128;2022-08-03T14:10:37;32.10;33.30
12874;DHT22;6505;51.114;13.128;2022-08-03T14:13:07;32.10;33.40
12874;DHT22;6505;51.114;13.128;2022-08-03T14:15:38;32.10;33.30
12874;DHT22;6505;51.114;13.128;2022-08-03T14:18:06;32.10;33.00
12874;DHT22;6505;51.114;13.128;2022-08-03T14:20:42;32.10;33.30
12874;DHT22;6505;51.114;13.128;2022-08-03T14:23:17;32.00;33.50
12874;DHT22;6505;51.114;13.128;2022-08-03T14:25:46;32.00;33.50
12874;DHT22;6505;51.114;13.128;2022-08-03T14:28:19;31.90;33.50
12874;DHT22;6505;51.114;13.128;2022-08-03T14:30:51;32.00;32.50
12874;DHT22;6505;51.114;13.128;2022-08-03T14:33:20;31.90;33.30
12874;DHT22;6505;51.114;13.128;2022-08-03T14:35:49;31.90;33.30
12874;DHT22;6505;51.114;13.128;2022-08-03T14:38:19;31.90;32.30
12874;DHT22;6505;51.114;13.128;2022-08-03T14:40:47;31.90;32.10
12874;DHT22;6505;51.114;13.128;2022-08-03T14:43:16;31.90;31.70
12874;DHT22;6505;51.114;13.128;2022-08-03T14:45:46;31.90;32.30
12874;DHT22;6505;51.114;13.128;2022-08-03T14:48:19;31.90;32.30
12874;DHT22;6505;51.114;13.128;2022-08-03T14:51:07;31.90;32.00
12874;DHT22;6505;51.114;13.128;2022-08-03T14:53:35;32.00;32.30
12874;DHT22;6505;51.114;13.128;2022-08-03T14:56:04;31.90;32.60
12874;DHT22;6505;51.114;13.128;2022-08-03T14:58:36;31.90;32.10
12874;DHT22;6505;51.114;13.128;2022-08-03T15:01:04;31.90;31.90
12874;DHT22;6505;51.114;13.128;2022-08-03T15:03:54;31.90;31.90
12874;DHT22;6505;51.114;13.128;2022-08-03T15:06:23;32.00;32.50
12874;DHT22;6505;51.114;13.128;2022-08-03T15:08:51;32.00;33.00
12874;DHT22;6505;51.114;13.128;2022-08-03T15:11:39;31.90;33.10
12874;DHT22;6505;51.114;13.128;2022-08-03T15:14:07;32.00;32.90
12874;DHT22;6505;51.114;13.128;2022-08-03T15:16:39;31.90;33.30
12874;DHT22;6505;51.114;13.128;2022-08-03T15:19:08;32.00;32.40
12874;DHT22;6505;51.114;13.128;2022-08-03T15:21:56;32.00;33.20
12874;DHT22;6505;51.114;13.128;2022-08-03T15:24:26;31.90;33.00
12874;DHT22;6505;51.114;13.128;2022-08-03T15:26:54;31.90;33.30
12874;DHT22;6505;51.114;13.128;2022-08-03T15:29:22;31.90;33.60
12874;DHT22;6505;51.114;13.128;2022-08-03T15:32:10;31.90;33.50
12874;DHT22;6505;51.114;13.128;2022-08-03T15:34:40;31.90;33.30
12874;DHT22;6505;51.114;13.128;2022-08-03T15:37:17;31.90;33.20
12874;DHT22;6505;51.114;13.128;2022-08-03T15:39:45;31.90;33.70
12874;DHT22;6505;51.114;13.128;2022-08-03T15:42:26;31.80;33.70
12874;DHT22;6505;51.114;13.128;2022-08-03T15:44:55;31.90;33.70
12874;DHT22;6505;51.114;13.128;2022-08-03T15:47:24;31.80;33.50
12874;DHT22;6505;51.114;13.128;2022-08-03T15:49:53;31.80;33.80
12874;DHT22;6505;51.114;13.128;2022-08-03T15:52:21;31.80;33.30
12874;DHT22;6505;51.114;13.128;2022-08-03T15:54:49;31.80;32.00
12874;DHT22;6505;51.114;13.128;2022-08-03T15:57:17;31.80;33.10
12874;DHT22;6505;51.114;13.128;2022-08-03T15:59:46;31.80;33.40
12874;DHT22;6505;51.114;13.128;2022-08-03T16:02:14;31.80;33.50
12874;DHT22;6505;51.114;13.128;2022-08-03T16:04:42;31.80;33.50
12874;DHT22;6505;51.114;13.128;2022-08-03T16:07:11;31.80;33.90
12874;DHT22;6505;51.114;13.128;2022-08-03T16:09:41;31.80;33.90